createdAt,value
2023-03-04T00:02:04.446Z,7.00
2023-03-04T00:05:08.577Z,7.00
2023-03-04T00:08:11.529Z,6.90
2023-03-04T00:11:15.835Z,7.00
2023-03-04T00:14:18.806Z,7.00
2023-03-04T00:17:22.456Z,7.00
2023-03-04T00:20:25.397Z,7.10
2023-03-04T00:23:28.345Z,7.00
2023-03-04T00:26:32.640Z,7.10
2023-03-04T00:29:35.599Z,7.10
2023-03-04T00:32:38.602Z,7.10
2023-03-04T00:35:41.720Z,7.20
2023-03-04T00:38:44.725Z,7.20
2023-03-04T00:41:49.030Z,7.20
2023-03-04T00:44:52.388Z,7.20
2023-03-04T00:47:55.343Z,7.10
2023-03-04T00:50:58.250Z,7.20
2023-03-04T00:54:01.235Z,7.10
2023-03-04T00:57:05.536Z,7.10
2023-03-04T01:00:09.803Z,7.20
2023-03-04T01:03:12.759Z,7.10
2023-03-04T01:06:15.729Z,7.10
2023-03-04T01:09:18.670Z,7.10
2023-03-04T01:12:22.962Z,7.20
2023-03-04T01:15:26.002Z,7.10
2023-03-04T01:18:29.024Z,7.10
2023-03-04T01:21:32.065Z,7.20
2023-03-04T01:24:35.046Z,7.20
2023-03-04T01:27:39.317Z,7.20
2023-03-04T01:30:42.355Z,7.20
2023-03-04T01:33:45.332Z,7.20
2023-03-04T01:36:48.294Z,7.20
2023-03-04T01:39:51.266Z,7.10
2023-03-04T01:42:55.704Z,7.20
2023-03-04T01:45:59.748Z,7.20
2023-03-04T01:49:02.892Z,7.20
2023-03-04T01:52:07.085Z,7.20
2023-03-04T01:55:15.948Z,7.20
2023-03-04T01:58:20.360Z,7.20
2023-03-04T02:01:23.334Z,7.20
2023-03-04T02:04:29.291Z,7.20
2023-03-04T02:07:32.270Z,7.20
2023-03-04T02:10:35.811Z,7.20
2023-03-04T02:13:40.148Z,7.20
2023-03-04T02:16:43.517Z,7.10
2023-03-04T02:19:54.749Z,7.20
2023-03-04T02:23:06.074Z,7.20
2023-03-04T02:26:16.647Z,7.10
2023-03-04T02:29:20.263Z,7.20
2023-03-04T02:32:23.530Z,7.10
2023-03-04T02:35:26.602Z,7.10
2023-03-04T02:38:29.613Z,7.20
2023-03-04T02:41:34.770Z,7.20
2023-03-04T02:44:39.392Z,7.20
2023-03-04T02:47:42.350Z,7.20
2023-03-04T02:50:47.848Z,7.20
2023-03-04T02:53:50.769Z,7.20
2023-03-04T02:56:58.209Z,7.20
2023-03-04T03:00:01.212Z,7.20
2023-03-04T03:03:04.382Z,7.20
2023-03-04T03:06:07.942Z,7.20
2023-03-04T03:09:10.909Z,7.20
2023-03-04T03:12:15.334Z,7.20
2023-03-04T03:15:18.804Z,7.10
2023-03-04T03:18:21.826Z,7.10
2023-03-04T03:21:25.091Z,7.00
2023-03-04T03:24:28.087Z,7.10
2023-03-04T03:27:32.561Z,7.20
2023-03-04T03:30:35.482Z,7.20
2023-03-04T03:33:38.582Z,7.20
2023-03-04T03:36:41.616Z,7.20
2023-03-04T03:39:44.764Z,7.20
2023-03-04T03:42:49.032Z,7.10
2023-03-04T03:45:52.843Z,7.20
2023-03-04T03:48:56.045Z,7.20
2023-03-04T03:51:58.991Z,7.10
2023-03-04T03:55:02.522Z,7.10
2023-03-04T03:58:07.112Z,7.00
2023-03-04T04:01:11.346Z,7.00
2023-03-04T04:04:15.024Z,7.00
2023-03-04T04:07:18.382Z,7.00
2023-03-04T04:10:21.547Z,7.10
2023-03-04T04:13:26.023Z,7.10
2023-03-04T04:16:29.059Z,7.00
2023-03-04T04:19:32.027Z,7.00
2023-03-04T04:22:35.357Z,7.00
2023-03-04T04:25:38.320Z,7.00
2023-03-04T04:28:42.599Z,7.00
2023-03-04T04:31:46.200Z,7.10
2023-03-04T04:34:49.412Z,7.10
2023-03-04T04:37:52.351Z,7.10
2023-03-04T04:40:57.339Z,7.10
2023-03-04T04:44:01.609Z,7.20
2023-03-04T04:47:04.549Z,7.20
2023-03-04T04:50:08.305Z,7.20
2023-03-04T04:53:13.317Z,7.20
2023-03-04T04:56:18.096Z,7.20
2023-03-04T04:59:22.679Z,7.30
2023-03-04T05:02:25.710Z,7.30
2023-03-04T05:05:28.703Z,7.30
2023-03-04T05:08:31.755Z,7.30
2023-03-04T05:11:34.930Z,7.20
2023-03-04T05:14:39.272Z,7.20
2023-03-04T05:17:42.204Z,7.20
2023-03-04T05:20:45.140Z,7.20
2023-03-04T05:23:48.126Z,7.20
2023-03-04T05:26:51.062Z,7.20
2023-03-04T05:29:55.631Z,7.20
2023-03-04T05:32:58.536Z,7.20
2023-03-04T05:36:01.634Z,7.10
2023-03-04T05:39:04.788Z,7.00
2023-03-04T05:42:07.816Z,7.00
2023-03-04T05:45:12.853Z,7.00
2023-03-04T05:48:15.769Z,7.00
2023-03-04T05:51:18.745Z,7.00
2023-03-04T05:54:21.795Z,7.00
2023-03-04T05:57:24.743Z,6.90
2023-03-04T06:00:29.307Z,6.90
2023-03-04T06:03:32.486Z,6.90
2023-03-04T06:06:35.436Z,6.90
2023-03-04T06:09:38.396Z,6.90
2023-03-04T06:12:41.713Z,6.90
2023-03-04T06:15:46.153Z,7.00
2023-03-04T06:18:49.175Z,7.00
2023-03-04T06:21:52.126Z,6.90
2023-03-04T06:24:55.216Z,7.00
2023-03-04T06:27:58.222Z,6.90
2023-03-04T06:31:02.540Z,6.90
2023-03-04T06:34:05.595Z,6.90
2023-03-04T06:37:08.641Z,6.90
2023-03-04T06:40:13.138Z,6.90
2023-03-04T06:43:16.298Z,6.90
2023-03-04T06:46:20.729Z,6.90
2023-03-04T06:49:23.723Z,6.80
2023-03-04T06:52:26.715Z,6.80
2023-03-04T06:55:29.659Z,6.80
2023-03-04T06:58:32.612Z,6.80
2023-03-04T07:01:38.062Z,6.80
2023-03-04T07:04:41.566Z,6.90
2023-03-04T07:07:44.610Z,6.80
2023-03-04T07:10:47.608Z,6.90
2023-03-04T07:13:51.091Z,6.80
2023-03-04T07:16:55.524Z,6.80
2023-03-04T07:19:58.501Z,6.80
2023-03-04T07:23:01.488Z,6.80
2023-03-04T07:26:04.973Z,6.80
2023-03-04T07:29:07.950Z,6.90
2023-03-04T07:32:12.683Z,6.90
2023-03-04T07:35:15.823Z,6.90
2023-03-04T07:38:18.760Z,6.90
2023-03-04T07:41:23.192Z,6.90
2023-03-04T07:44:26.174Z,6.90
2023-03-04T07:47:30.693Z,6.90
2023-03-04T07:50:33.712Z,6.80
2023-03-04T07:53:38.282Z,6.80
2023-03-04T07:56:41.407Z,6.80
2023-03-04T07:59:44.357Z,6.80
2023-03-04T08:02:48.665Z,6.90
2023-03-04T08:05:51.655Z,6.90
2023-03-04T08:08:58.626Z,6.90
2023-03-04T08:12:01.640Z,6.90
2023-03-04T08:15:05.009Z,7.00
2023-03-04T08:18:09.381Z,7.00
2023-03-04T08:21:13.714Z,7.00
2023-03-04T08:24:16.682Z,7.00
2023-03-04T08:27:19.700Z,7.00
2023-03-04T08:30:22.899Z,7.10
2023-03-04T08:33:27.338Z,7.10
2023-03-04T08:36:30.407Z,7.10
2023-03-04T08:39:36.048Z,7.10
2023-03-04T08:42:39.154Z,7.10
2023-03-04T08:45:42.166Z,7.20
2023-03-04T08:48:46.662Z,7.10
2023-03-04T08:51:49.746Z,7.10
2023-03-04T08:54:52.700Z,7.00
2023-03-04T08:57:55.712Z,7.10
2023-03-04T09:01:01.749Z,7.20
2023-03-04T09:04:06.533Z,7.20
2023-03-04T09:07:09.889Z,7.10
2023-03-04T09:10:13.335Z,7.10
2023-03-04T09:13:16.642Z,7.20
2023-03-04T09:16:19.876Z,7.20
2023-03-04T09:19:24.189Z,7.20
2023-03-04T09:22:27.197Z,7.20
2023-03-04T09:25:30.274Z,7.20
2023-03-04T09:28:33.463Z,7.20
2023-03-04T09:31:36.619Z,7.10
2023-03-04T09:34:41.280Z,7.20
2023-03-04T09:37:45.523Z,7.20
2023-03-04T09:40:50.486Z,7.30
2023-03-04T09:43:54.960Z,7.50
2023-03-04T09:47:00.294Z,7.80
2023-03-04T09:50:09.388Z,7.80
2023-03-04T09:53:21.875Z,7.70
2023-03-04T09:56:26.375Z,7.60
2023-03-04T09:59:36.374Z,7.50
2023-03-04T10:02:47.116Z,7.50
2023-03-04T10:05:56.879Z,7.50
2023-03-04T10:09:03.170Z,7.50
2023-03-04T10:12:08.909Z,7.50
2023-03-04T10:15:25.292Z,7.60
2023-03-04T10:18:34.138Z,7.70
2023-03-04T10:21:42.714Z,7.80
2023-03-04T10:24:47.608Z,7.80
2023-03-04T10:27:52.936Z,7.80
2023-03-04T10:31:02.795Z,7.80
2023-03-04T10:34:07.063Z,7.80
2023-03-04T10:37:11.863Z,7.90
2023-03-04T10:40:23.588Z,8.00
2023-03-04T10:43:26.965Z,7.90
2023-03-04T10:46:30.350Z,8.00
2023-03-04T10:49:33.384Z,8.00
2023-03-04T10:52:42.183Z,8.00
2023-03-04T10:55:46.261Z,7.90
2023-03-04T10:58:49.301Z,8.00
2023-03-04T11:01:54.676Z,8.10
2023-03-04T11:05:07.087Z,8.20
2023-03-04T11:08:19.133Z,8.30
2023-03-04T11:11:34.668Z,8.30
2023-03-04T11:14:41.343Z,8.30
2023-03-04T11:17:48.110Z,8.30
2023-03-04T11:20:52.098Z,8.50
2023-03-04T11:24:01.205Z,8.60
2023-03-04T11:27:07.354Z,8.80
2023-03-04T11:30:39.132Z,8.90
2023-03-04T11:33:46.393Z,8.90
2023-03-04T11:36:57.214Z,8.80
2023-03-04T11:40:06.195Z,8.80
2023-03-04T11:43:17.439Z,8.60
2023-03-04T11:46:46.955Z,8.40
2023-03-04T11:50:15.487Z,8.50
2023-03-04T11:53:30.326Z,8.70
2023-03-04T11:56:38.877Z,8.80
2023-03-04T12:00:03.042Z,9.00
2023-03-04T12:03:26.242Z,9.10
2023-03-04T12:06:36.334Z,9.10
2023-03-04T12:09:46.534Z,9.10
2023-03-04T12:13:08.217Z,9.00
2023-03-04T12:16:22.204Z,9.10
2023-03-04T12:19:38.305Z,9.00
2023-03-04T12:22:45.837Z,8.90
2023-03-04T12:25:56.409Z,8.90
2023-03-04T12:29:05.856Z,8.80
2023-03-04T12:32:16.052Z,8.80
2023-03-04T12:35:31.195Z,8.90
2023-03-04T12:38:55.094Z,8.90
2023-03-04T12:42:08.067Z,8.90
2023-03-04T12:45:21.474Z,8.70
2023-03-04T12:48:33.136Z,8.60
2023-03-04T12:51:45.330Z,8.50
2023-03-04T12:54:51.622Z,8.50
2023-03-04T12:57:58.144Z,9.70
2023-03-04T13:01:08.609Z,10.30
2023-03-04T13:04:18.506Z,10.10
2023-03-04T13:07:29.481Z,9.90
2023-03-04T13:10:32.593Z,9.60
2023-03-04T13:13:38.921Z,9.30
2023-03-04T13:16:46.146Z,9.20
2023-03-04T13:19:52.736Z,9.20
2023-03-04T13:22:59.352Z,9.10
2023-03-04T13:26:25.550Z,9.10
2023-03-04T13:29:36.991Z,9.40
2023-03-04T13:32:44.002Z,9.80
2023-03-04T13:35:52.961Z,10.00
2023-03-04T13:39:01.421Z,9.80
2023-03-04T13:42:26.126Z,9.50
2023-03-04T13:45:35.591Z,9.30
2023-03-04T13:48:39.963Z,9.20
2023-03-04T13:51:46.095Z,9.10
2023-03-04T13:54:49.033Z,9.10
2023-03-04T13:57:52.994Z,9.10
2023-03-04T14:00:57.209Z,9.30
2023-03-04T14:04:02.513Z,9.40
2023-03-04T14:07:20.066Z,9.30
2023-03-04T14:10:25.637Z,9.10
2023-03-04T14:13:28.927Z,9.00
2023-03-04T14:16:36.314Z,8.90
2023-03-04T14:19:46.623Z,8.90
2023-03-04T14:22:49.663Z,8.80
2023-03-04T14:25:52.808Z,8.90
2023-03-04T14:28:57.432Z,9.00
2023-03-04T14:32:02.741Z,9.10
2023-03-04T14:35:19.151Z,9.00
2023-03-04T14:38:25.671Z,9.00
2023-03-04T14:41:32.663Z,8.80
2023-03-04T14:44:38.729Z,8.60
2023-03-04T14:47:45.372Z,8.50
2023-03-04T14:50:53.644Z,8.40
2023-03-04T14:53:57.677Z,8.20
2023-03-04T14:57:03.054Z,8.10
2023-03-04T15:00:17.229Z,8.10
2023-03-04T15:03:23.479Z,8.00
2023-03-04T15:06:30.756Z,7.90
2023-03-04T15:09:34.011Z,8.00
2023-03-04T15:12:38.428Z,8.00
2023-03-04T15:15:44.832Z,7.90
2023-03-04T15:19:00.678Z,7.70
2023-03-04T15:22:09.449Z,7.60
2023-03-04T15:25:15.219Z,7.60
2023-03-04T15:28:20.210Z,7.50
2023-03-04T15:31:25.723Z,7.50
2023-03-04T15:34:28.850Z,7.40
2023-03-04T15:37:33.271Z,7.40
2023-03-04T15:40:39.975Z,7.30
2023-03-04T15:43:42.922Z,7.30
2023-03-04T15:46:46.194Z,7.30
2023-03-04T15:49:49.253Z,7.20
2023-03-04T15:52:54.899Z,7.20
2023-03-04T15:55:58.103Z,7.10
2023-03-04T15:59:05.618Z,7.10
2023-03-04T16:02:16.338Z,7.20
2023-03-04T16:05:21.385Z,7.30
2023-03-04T16:08:26.285Z,7.30
2023-03-04T16:11:33.594Z,7.20
2023-03-04T16:14:36.929Z,7.20
2023-03-04T16:17:43.803Z,7.20
2023-03-04T16:20:48.467Z,7.20
2023-03-04T16:23:54.432Z,7.10
2023-03-04T16:26:57.461Z,7.00
2023-03-04T16:30:00.542Z,6.90
2023-03-04T16:33:03.604Z,7.00
2023-03-04T16:36:15.358Z,6.90
2023-03-04T16:39:22.491Z,6.80
2023-03-04T16:42:27.080Z,6.80
2023-03-04T16:45:30.874Z,6.70
2023-03-04T16:48:34.457Z,6.70
2023-03-04T16:51:43.485Z,6.70
2023-03-04T16:54:48.318Z,6.60
2023-03-04T16:57:52.197Z,6.50
2023-03-04T17:00:56.144Z,6.40
2023-03-04T17:03:59.191Z,6.50
2023-03-04T17:07:02.264Z,6.50
2023-03-04T17:10:07.513Z,6.40
2023-03-04T17:13:10.530Z,6.40
2023-03-04T17:16:15.175Z,6.30
2023-03-04T17:19:18.223Z,6.30
2023-03-04T17:22:21.260Z,6.30
2023-03-04T17:25:25.802Z,6.20
2023-03-04T17:28:29.081Z,6.20
2023-03-04T17:31:32.125Z,6.20
2023-03-04T17:34:35.164Z,6.20
2023-03-04T17:37:38.860Z,6.20
2023-03-04T17:40:43.617Z,6.10
2023-03-04T17:43:48.009Z,6.10
2023-03-04T17:46:51.121Z,6.00
2023-03-04T17:49:54.218Z,6.10
2023-03-04T17:52:57.222Z,6.00
2023-03-04T17:56:03.981Z,6.00
2023-03-04T17:59:09.218Z,5.90
2023-03-04T18:02:16.395Z,5.90
2023-03-04T18:05:19.577Z,5.90
2023-03-04T18:08:24.065Z,5.80
2023-03-04T18:11:29.242Z,5.80
2023-03-04T18:14:32.356Z,5.80
2023-03-04T18:17:35.453Z,5.70
2023-03-04T18:20:38.552Z,5.70
2023-03-04T18:23:41.598Z,5.70
2023-03-04T18:26:45.953Z,5.60
2023-03-04T18:29:48.988Z,5.60
2023-03-04T18:32:52.677Z,5.50
2023-03-04T18:35:59.955Z,5.60
2023-03-04T18:39:05.347Z,5.60
2023-03-04T18:42:09.705Z,5.50
2023-03-04T18:45:13.394Z,5.50
2023-03-04T18:48:16.549Z,5.40
2023-03-04T18:51:20.263Z,5.40
2023-03-04T18:54:23.416Z,5.50
2023-03-04T18:57:27.992Z,5.40
2023-03-04T19:00:31.133Z,5.40
2023-03-04T19:03:37.020Z,5.20
2023-03-04T19:06:40.282Z,5.30
2023-03-04T19:09:43.418Z,5.20
2023-03-04T19:12:47.796Z,5.20
2023-03-04T19:15:51.220Z,5.10
2023-03-04T19:18:54.563Z,5.10
2023-03-04T19:21:58.415Z,5.10
2023-03-04T19:25:01.629Z,5.10
2023-03-04T19:28:06.484Z,5.00
2023-03-04T19:31:11.149Z,4.90
2023-03-04T19:34:14.248Z,4.80
2023-03-04T19:37:17.351Z,4.80
2023-03-04T19:40:21.016Z,4.90
2023-03-04T19:43:25.352Z,4.90
2023-03-04T19:46:28.670Z,4.90
2023-03-04T19:49:32.696Z,5.00
2023-03-04T19:52:35.926Z,5.00
2023-03-04T19:55:38.953Z,5.00
2023-03-04T19:58:43.269Z,5.00
2023-03-04T20:01:47.295Z,4.90
2023-03-04T20:04:50.367Z,4.80
2023-03-04T20:07:53.599Z,4.80
2023-03-04T20:10:56.572Z,4.80
2023-03-04T20:14:02.188Z,4.80
2023-03-04T20:17:07.045Z,4.80
2023-03-04T20:20:12.400Z,4.80
2023-03-04T20:23:20.115Z,4.80
2023-03-04T20:26:23.621Z,4.80
2023-03-04T20:29:28.817Z,4.70
2023-03-04T20:32:31.808Z,4.70
2023-03-04T20:35:34.786Z,4.70
2023-03-04T20:38:37.840Z,4.70
2023-03-04T20:41:41.004Z,4.70
2023-03-04T20:44:45.351Z,4.80
2023-03-04T20:47:48.667Z,4.80
2023-03-04T20:50:51.624Z,4.80
2023-03-04T20:53:55.391Z,4.90
2023-03-04T20:56:58.444Z,4.90
2023-03-04T21:00:02.802Z,4.90
2023-03-04T21:03:05.935Z,5.00
2023-03-04T21:06:11.136Z,5.00
2023-03-04T21:09:17.550Z,5.10
2023-03-04T21:12:20.593Z,5.10
2023-03-04T21:15:24.942Z,5.10
2023-03-04T21:18:29.569Z,5.10
2023-03-04T21:21:32.675Z,5.10
2023-03-04T21:24:39.222Z,5.10
2023-03-04T21:27:43.143Z,5.10
2023-03-04T21:30:47.484Z,5.10
2023-03-04T21:33:50.877Z,5.20
2023-03-04T21:36:53.793Z,5.10
2023-03-04T21:39:58.085Z,5.10
2023-03-04T21:43:01.076Z,5.10
2023-03-04T21:46:06.139Z,5.10
2023-03-04T21:49:09.481Z,5.20
2023-03-04T21:52:13.045Z,5.10
2023-03-04T21:55:16.161Z,5.10
2023-03-04T21:58:19.209Z,5.20
2023-03-04T22:01:23.480Z,5.10
2023-03-04T22:04:26.449Z,5.20
2023-03-04T22:07:29.430Z,5.20
2023-03-04T22:10:32.409Z,5.20
2023-03-04T22:13:35.417Z,5.10
2023-03-04T22:16:53.952Z,5.10
2023-03-04T22:19:58.217Z,4.90
2023-03-04T22:23:01.186Z,5.00
2023-03-04T22:26:05.342Z,4.90
2023-03-04T22:29:08.280Z,5.00
2023-03-04T22:32:12.581Z,5.00
2023-03-04T22:35:15.680Z,4.90
2023-03-04T22:38:18.733Z,4.90
2023-03-04T22:41:22.558Z,4.90
2023-03-04T22:44:25.537Z,4.90
2023-03-04T22:47:29.793Z,4.90
2023-03-04T22:50:32.827Z,4.90
2023-03-04T22:53:35.904Z,4.90
2023-03-04T22:56:39.117Z,4.90
2023-03-04T22:59:42.249Z,4.90
2023-03-04T23:02:46.728Z,4.90
2023-03-04T23:05:49.736Z,4.90
2023-03-04T23:08:53.643Z,4.90
2023-03-04T23:11:56.606Z,4.80
2023-03-04T23:14:59.694Z,4.80
2023-03-04T23:18:04.038Z,4.90
2023-03-04T23:21:07.872Z,4.90
2023-03-04T23:24:12.603Z,4.90
2023-03-04T23:27:15.533Z,4.80
2023-03-04T23:30:18.516Z,4.90
2023-03-04T23:33:23.057Z,4.80
2023-03-04T23:36:28.272Z,4.80
2023-03-04T23:39:31.228Z,4.80
2023-03-04T23:42:34.168Z,4.80
2023-03-04T23:45:38.496Z,4.80
2023-03-04T23:48:46.210Z,4.70
2023-03-04T23:51:49.230Z,4.70
2023-03-04T23:54:52.227Z,4.70
2023-03-04T23:57:55.190Z,4.70
